YSRI

RAAF Base Richmond

Airport
ICAO code
YSRI
IATA Code
RCM
Summary
ICAO Region
APAC
ICAO Territory
Location

Hawkesbury, New South Wales

Serving
Richmond
Elevation
1 ft
Coordinates
33° 36' 15" S , 150° 46' 55" E
KCC
Metar
Observation
YSRI 062330Z AUTO 03005KT 010V080 9999 // SCT125 26/14 Q1005
Station
Richmond Aus-Afb
Date/Time
2022-12-06 23:30:00
Wind direction
30°
Wind speed
05 kts
Lowest cloud amount
scattered clouds
Temperature
26°C
Dew point
14°C
Humidity
47%
QNH
1005 hPa
Weather condition
n/a

Royal Australian Air Force base on northern outskirts of Sydney; home to the Air Lift Group.

Climatology

Temperate Marine climate/Oceanic climate (Köppen climate classification Cfb). Moderately cool summer and comparatively warm winter

Airport map

Aerial View

SKYbrary Partners:

Safety knowledge contributed by: